sensor_id;sensor_type;location;lat;lon;timestamp;temperature;humidity
23744;DHT22;12052;53.478;10.182;2023-05-10T00:01:04;13.70;99.90
23744;DHT22;12052;53.478;10.182;2023-05-10T00:03:29;13.70;99.90
23744;DHT22;12052;53.478;10.182;2023-05-10T00:05:55;13.70;99.90
23744;DHT22;12052;53.478;10.182;2023-05-10T00:08:21;13.60;99.90
23744;DHT22;12052;53.478;10.182;2023-05-10T00:10:46;13.60;99.90
23744;DHT22;12052;53.478;10.182;2023-05-10T00:13:12;13.50;99.90
23744;DHT22;12052;53.478;10.182;2023-05-10T00:15:38;13.50;99.90
23744;DHT22;12052;53.478;10.182;2023-05-10T00:18:03;13.50;99.90
23744;DHT22;12052;53.478;10.182;2023-05-10T00:20:29;13.50;99.90
23744;DHT22;12052;53.478;10.182;2023-05-10T00:22:55;13.50;99.90
23744;DHT22;12052;53.478;10.182;2023-05-10T00:25:20;13.50;99.90
23744;DHT22;12052;53.478;10.182;2023-05-10T00:27:47;13.50;99.90
23744;DHT22;12052;53.478;10.182;2023-05-10T00:30:12;13.40;99.90
23744;DHT22;12052;53.478;10.182;2023-05-10T00:32:38;13.40;99.90
23744;DHT22;12052;53.478;10.182;2023-05-10T00:35:04;13.40;99.90
23744;DHT22;12052;53.478;10.182;2023-05-10T00:37:30;13.40;99.90
23744;DHT22;12052;53.478;10.182;2023-05-10T00:39:55;13.40;99.90
23744;DHT22;12052;53.478;10.182;2023-05-10T00:42:21;13.30;99.90
23744;DHT22;12052;53.478;10.182;2023-05-10T00:44:47;13.30;99.90
23744;DHT22;12052;53.478;10.182;2023-05-10T00:47:13;13.30;99.90
23744;DHT22;12052;53.478;10.182;2023-05-10T00:49:39;13.30;99.90
23744;DHT22;12052;53.478;10.182;2023-05-10T00:52:06;13.30;99.90
23744;DHT22;12052;53.478;10.182;2023-05-10T00:54:31;13.20;99.90
23744;DHT22;12052;53.478;10.182;2023-05-10T00:56:57;13.20;99.90
23744;DHT22;12052;53.478;10.182;2023-05-10T00:59:24;13.20;99.90
23744;DHT22;12052;53.478;10.182;2023-05-10T01:01:49;13.10;99.90
23744;DHT22;12052;53.478;10.182;2023-05-10T01:04:16;13.10;99.90
23744;DHT22;12052;53.478;10.182;2023-05-10T01:06:42;13.10;99.90
23744;DHT22;12052;53.478;10.182;2023-05-10T01:09:08;13.10;99.90
23744;DHT22;12052;53.478;10.182;2023-05-10T01:11:38;13.00;99.90
23744;DHT22;12052;53.478;10.182;2023-05-10T01:14:05;13.00;99.90
23744;DHT22;12052;53.478;10.182;2023-05-10T01:16:37;12.90;99.90
23744;DHT22;12052;53.478;10.182;2023-05-10T01:19:06;12.90;99.90
23744;DHT22;12052;53.478;10.182;2023-05-10T01:21:57;12.90;99.90
23744;DHT22;12052;53.478;10.182;2023-05-10T01:30:08;12.90;99.90
23744;DHT22;12052;53.478;10.182;2023-05-10T01:41:16;12.70;99.90
23744;DHT22;12052;53.478;10.182;2023-05-10T01:46:39;12.60;99.90
23744;DHT22;12052;53.478;10.182;2023-05-10T01:49:20;12.60;99.90
23744;DHT22;12052;53.478;10.182;2023-05-10T01:51:52;12.60;99.90
23744;DHT22;12052;53.478;10.182;2023-05-10T01:54:21;12.60;99.90
23744;DHT22;12052;53.478;10.182;2023-05-10T01:56:55;12.50;99.90
23744;DHT22;12052;53.478;10.182;2023-05-10T01:59:29;12.50;99.90
23744;DHT22;12052;53.478;10.182;2023-05-10T02:01:58;12.40;99.90
23744;DHT22;12052;53.478;10.182;2023-05-10T02:04:25;12.50;99.90
23744;DHT22;12052;53.478;10.182;2023-05-10T02:06:52;12.40;99.90
23744;DHT22;12052;53.478;10.182;2023-05-10T02:09:20;12.40;99.90
23744;DHT22;12052;53.478;10.182;2023-05-10T02:11:48;12.30;99.90
23744;DHT22;12052;53.478;10.182;2023-05-10T02:14:14;12.30;99.90
23744;DHT22;12052;53.478;10.182;2023-05-10T02:16:41;12.30;99.90
23744;DHT22;12052;53.478;10.182;2023-05-10T02:19:08;12.30;99.90
23744;DHT22;12052;53.478;10.182;2023-05-10T02:21:35;12.30;99.90
23744;DHT22;12052;53.478;10.182;2023-05-10T02:24:02;12.30;99.90
23744;DHT22;12052;53.478;10.182;2023-05-10T02:26:29;12.20;99.90
23744;DHT22;12052;53.478;10.182;2023-05-10T02:28:57;12.20;99.90
23744;DHT22;12052;53.478;10.182;2023-05-10T02:31:23;12.20;99.90
23744;DHT22;12052;53.478;10.182;2023-05-10T02:33:50;12.20;99.90
23744;DHT22;12052;53.478;10.182;2023-05-10T02:36:16;12.10;99.90
23744;DHT22;12052;53.478;10.182;2023-05-10T02:38:43;12.10;99.90
23744;DHT22;12052;53.478;10.182;2023-05-10T02:41:10;12.10;99.90
23744;DHT22;12052;53.478;10.182;2023-05-10T02:43:37;12.10;99.90
23744;DHT22;12052;53.478;10.182;2023-05-10T02:46:03;12.00;99.90
23744;DHT22;12052;53.478;10.182;2023-05-10T02:48:29;12.00;99.90
23744;DHT22;12052;53.478;10.182;2023-05-10T02:50:56;12.00;99.90
23744;DHT22;12052;53.478;10.182;2023-05-10T02:53:31;11.90;99.90
23744;DHT22;12052;53.478;10.182;2023-05-10T02:55:59;11.90;99.90
23744;DHT22;12052;53.478;10.182;2023-05-10T02:58:26;11.90;99.90
23744;DHT22;12052;53.478;10.182;2023-05-10T03:00:52;11.90;99.90
23744;DHT22;12052;53.478;10.182;2023-05-10T03:03:17;11.90;99.90
23744;DHT22;12052;53.478;10.182;2023-05-10T03:05:43;11.90;99.90
23744;DHT22;12052;53.478;10.182;2023-05-10T03:08:09;11.80;99.90
23744;DHT22;12052;53.478;10.182;2023-05-10T03:10:44;11.80;99.90
23744;DHT22;12052;53.478;10.182;2023-05-10T03:18:15;11.80;99.90
23744;DHT22;12052;53.478;10.182;2023-05-10T03:20:47;11.70;99.90
23744;DHT22;12052;53.478;10.182;2023-05-10T03:23:20;11.70;99.90
23744;DHT22;12052;53.478;10.182;2023-05-10T03:25:48;11.70;99.90
23744;DHT22;12052;53.478;10.182;2023-05-10T03:28:15;11.70;99.90
23744;DHT22;12052;53.478;10.182;2023-05-10T03:30:43;11.70;99.90
23744;DHT22;12052;53.478;10.182;2023-05-10T03:33:09;11.70;99.90
23744;DHT22;12052;53.478;10.182;2023-05-10T03:35:34;11.70;99.90
23744;DHT22;12052;53.478;10.182;2023-05-10T03:38:00;11.70;99.90
23744;DHT22;12052;53.478;10.182;2023-05-10T03:40:27;11.70;99.90
23744;DHT22;12052;53.478;10.182;2023-05-10T03:42:55;11.60;99.90
23744;DHT22;12052;53.478;10.182;2023-05-10T03:45:20;11.60;99.90
23744;DHT22;12052;53.478;10.182;2023-05-10T03:47:46;11.60;99.90
23744;DHT22;12052;53.478;10.182;2023-05-10T03:50:12;11.60;99.90
23744;DHT22;12052;53.478;10.182;2023-05-10T03:52:37;11.60;99.90
23744;DHT22;12052;53.478;10.182;2023-05-10T03:55:05;11.60;99.90
23744;DHT22;12052;53.478;10.182;2023-05-10T03:57:30;11.70;99.90
23744;DHT22;12052;53.478;10.182;2023-05-10T03:59:56;11.60;99.90
23744;DHT22;12052;53.478;10.182;2023-05-10T04:02:22;11.60;99.90
23744;DHT22;12052;53.478;10.182;2023-05-10T04:04:47;11.70;99.90
23744;DHT22;12052;53.478;10.182;2023-05-10T04:07:13;11.60;99.90
23744;DHT22;12052;53.478;10.182;2023-05-10T04:09:39;11.60;99.90
23744;DHT22;12052;53.478;10.182;2023-05-10T04:12:05;11.60;99.90
23744;DHT22;12052;53.478;10.182;2023-05-10T04:14:31;11.60;99.90
23744;DHT22;12052;53.478;10.182;2023-05-10T04:16:56;11.60;99.90
23744;DHT22;12052;53.478;10.182;2023-05-10T04:19:22;11.60;99.90
23744;DHT22;12052;53.478;10.182;2023-05-10T04:21:47;11.60;99.90
23744;DHT22;12052;53.478;10.182;2023-05-10T04:24:13;11.60;99.90
23744;DHT22;12052;53.478;10.182;2023-05-10T04:26:39;11.60;99.90
23744;DHT22;12052;53.478;10.182;2023-05-10T04:29:04;11.60;99.90
23744;DHT22;12052;53.478;10.182;2023-05-10T04:31:30;11.70;99.90
23744;DHT22;12052;53.478;10.182;2023-05-10T04:33:55;11.70;99.90
23744;DHT22;12052;53.478;10.182;2023-05-10T04:36:21;11.70;99.90
23744;DHT22;12052;53.478;10.182;2023-05-10T04:38:47;11.80;99.90
23744;DHT22;12052;53.478;10.182;2023-05-10T04:41:12;11.80;99.90
23744;DHT22;12052;53.478;10.182;2023-05-10T04:43:38;11.80;99.90
23744;DHT22;12052;53.478;10.182;2023-05-10T04:46:05;11.70;99.90
23744;DHT22;12052;53.478;10.182;2023-05-10T04:48:30;11.70;99.90
23744;DHT22;12052;53.478;10.182;2023-05-10T04:50:56;11.80;99.90
23744;DHT22;12052;53.478;10.182;2023-05-10T04:53:22;11.80;99.90
23744;DHT22;12052;53.478;10.182;2023-05-10T04:55:48;11.70;99.90
23744;DHT22;12052;53.478;10.182;2023-05-10T04:58:14;11.70;99.90
23744;DHT22;12052;53.478;10.182;2023-05-10T05:00:39;11.70;99.90
23744;DHT22;12052;53.478;10.182;2023-05-10T05:03:05;11.80;99.90
23744;DHT22;12052;53.478;10.182;2023-05-10T05:05:31;11.90;99.90
23744;DHT22;12052;53.478;10.182;2023-05-10T05:07:56;11.90;99.90
23744;DHT22;12052;53.478;10.182;2023-05-10T05:10:22;12.00;99.90
23744;DHT22;12052;53.478;10.182;2023-05-10T05:12:48;12.10;99.90
23744;DHT22;12052;53.478;10.182;2023-05-10T05:15:13;12.10;99.90
23744;DHT22;12052;53.478;10.182;2023-05-10T05:17:40;12.20;99.90
23744;DHT22;12052;53.478;10.182;2023-05-10T05:20:06;12.30;99.90
23744;DHT22;12052;53.478;10.182;2023-05-10T05:22:32;12.40;99.90
23744;DHT22;12052;53.478;10.182;2023-05-10T05:24:58;12.50;99.90
23744;DHT22;12052;53.478;10.182;2023-05-10T05:27:24;12.60;99.90
23744;DHT22;12052;53.478;10.182;2023-05-10T05:29:55;12.70;99.90
23744;DHT22;12052;53.478;10.182;2023-05-10T05:32:21;12.70;99.90
23744;DHT22;12052;53.478;10.182;2023-05-10T05:34:47;12.80;99.90
23744;DHT22;12052;53.478;10.182;2023-05-10T05:37:14;12.90;99.90
23744;DHT22;12052;53.478;10.182;2023-05-10T05:39:39;12.90;99.90
23744;DHT22;12052;53.478;10.182;2023-05-10T05:42:05;13.00;99.90
23744;DHT22;12052;53.478;10.182;2023-05-10T05:44:31;13.00;99.90
23744;DHT22;12052;53.478;10.182;2023-05-10T05:46:56;13.10;99.90
23744;DHT22;12052;53.478;10.182;2023-05-10T05:49:22;13.20;99.90
23744;DHT22;12052;53.478;10.182;2023-05-10T05:51:48;13.20;99.90
23744;DHT22;12052;53.478;10.182;2023-05-10T05:54:15;13.20;99.90
23744;DHT22;12052;53.478;10.182;2023-05-10T05:56:41;13.40;99.90
23744;DHT22;12052;53.478;10.182;2023-05-10T05:59:06;13.50;99.90
23744;DHT22;12052;53.478;10.182;2023-05-10T06:01:32;13.60;99.90
23744;DHT22;12052;53.478;10.182;2023-05-10T06:03:58;13.90;99.90
23744;DHT22;12052;53.478;10.182;2023-05-10T06:06:23;14.00;99.90
23744;DHT22;12052;53.478;10.182;2023-05-10T06:08:49;14.20;99.90
23744;DHT22;12052;53.478;10.182;2023-05-10T06:11:14;14.40;99.90
23744;DHT22;12052;53.478;10.182;2023-05-10T06:13:40;14.40;99.90
23744;DHT22;12052;53.478;10.182;2023-05-10T06:16:07;14.40;99.90
23744;DHT22;12052;53.478;10.182;2023-05-10T06:18:33;14.50;99.90
23744;DHT22;12052;53.478;10.182;2023-05-10T06:20:59;14.70;99.90
23744;DHT22;12052;53.478;10.182;2023-05-10T06:23:24;14.70;99.90
23744;DHT22;12052;53.478;10.182;2023-05-10T06:25:51;14.60;99.90
23744;DHT22;12052;53.478;10.182;2023-05-10T06:28:16;14.50;99.90
23744;DHT22;12052;53.478;10.182;2023-05-10T06:30:42;14.60;99.90
23744;DHT22;12052;53.478;10.182;2023-05-10T06:33:08;14.70;99.90
23744;DHT22;12052;53.478;10.182;2023-05-10T06:35:34;14.90;99.90
23744;DHT22;12052;53.478;10.182;2023-05-10T06:37:59;15.10;99.90
23744;DHT22;12052;53.478;10.182;2023-05-10T06:40:25;15.30;99.90
23744;DHT22;12052;53.478;10.182;2023-05-10T06:42:51;15.60;99.90
23744;DHT22;12052;53.478;10.182;2023-05-10T06:45:17;15.50;99.90
23744;DHT22;12052;53.478;10.182;2023-05-10T06:47:42;15.20;99.90
23744;DHT22;12052;53.478;10.182;2023-05-10T06:50:09;14.90;99.90
23744;DHT22;12052;53.478;10.182;2023-05-10T06:52:35;14.90;99.90
23744;DHT22;12052;53.478;10.182;2023-05-10T06:55:01;14.90;99.90
23744;DHT22;12052;53.478;10.182;2023-05-10T06:57:27;14.90;99.90
23744;DHT22;12052;53.478;10.182;2023-05-10T06:59:52;15.10;99.90
23744;DHT22;12052;53.478;10.182;2023-05-10T07:02:18;15.10;99.90
23744;DHT22;12052;53.478;10.182;2023-05-10T07:04:43;15.10;99.90
23744;DHT22;12052;53.478;10.182;2023-05-10T07:07:09;15.30;99.90
23744;DHT22;12052;53.478;10.182;2023-05-10T07:09:35;15.40;99.90
23744;DHT22;12052;53.478;10.182;2023-05-10T07:12:00;15.40;99.90
23744;DHT22;12052;53.478;10.182;2023-05-10T07:14:27;15.40;99.90
23744;DHT22;12052;53.478;10.182;2023-05-10T07:16:52;15.80;99.90
23744;DHT22;12052;53.478;10.182;2023-05-10T07:19:18;15.80;99.90
23744;DHT22;12052;53.478;10.182;2023-05-10T07:21:44;15.90;99.90
23744;DHT22;12052;53.478;10.182;2023-05-10T07:24:10;15.90;99.90
23744;DHT22;12052;53.478;10.182;2023-05-10T07:26:36;15.70;99.90
23744;DHT22;12052;53.478;10.182;2023-05-10T07:29:01;15.90;99.90
23744;DHT22;12052;53.478;10.182;2023-05-10T07:31:27;15.80;99.90
23744;DHT22;12052;53.478;10.182;2023-05-10T07:33:53;16.00;99.90
23744;DHT22;12052;53.478;10.182;2023-05-10T07:36:19;15.90;99.90
23744;DHT22;12052;53.478;10.182;2023-05-10T07:38:44;15.90;99.90
23744;DHT22;12052;53.478;10.182;2023-05-10T07:41:11;15.70;99.90
23744;DHT22;12052;53.478;10.182;2023-05-10T07:43:37;15.60;99.90
23744;DHT22;12052;53.478;10.182;2023-05-10T07:46:03;15.60;99.90
23744;DHT22;12052;53.478;10.182;2023-05-10T07:48:28;15.60;99.90
23744;DHT22;12052;53.478;10.182;2023-05-10T07:50:54;15.70;99.90
23744;DHT22;12052;53.478;10.182;2023-05-10T07:53:19;15.50;99.90
23744;DHT22;12052;53.478;10.182;2023-05-10T07:55:50;15.60;99.90
23744;DHT22;12052;53.478;10.182;2023-05-10T07:58:17;15.80;99.90
23744;DHT22;12052;53.478;10.182;2023-05-10T08:00:43;15.70;99.90
23744;DHT22;12052;53.478;10.182;2023-05-10T08:03:08;15.90;99.90
23744;DHT22;12052;53.478;10.182;2023-05-10T08:05:34;15.90;99.90
23744;DHT22;12052;53.478;10.182;2023-05-10T08:08:00;15.90;99.90
23744;DHT22;12052;53.478;10.182;2023-05-10T08:10:26;16.00;99.90
23744;DHT22;12052;53.478;10.182;2023-05-10T08:12:51;15.90;99.90
23744;DHT22;12052;53.478;10.182;2023-05-10T08:15:17;15.90;99.90
23744;DHT22;12052;53.478;10.182;2023-05-10T08:17:42;15.80;99.90
23744;DHT22;12052;53.478;10.182;2023-05-10T08:20:08;15.70;99.90
23744;DHT22;12052;53.478;10.182;2023-05-10T08:22:34;15.90;99.90
23744;DHT22;12052;53.478;10.182;2023-05-10T08:25:00;16.00;99.90
23744;DHT22;12052;53.478;10.182;2023-05-10T08:27:25;16.10;99.90
23744;DHT22;12052;53.478;10.182;2023-05-10T08:29:51;16.20;99.90
23744;DHT22;12052;53.478;10.182;2023-05-10T08:32:17;16.20;99.90
23744;DHT22;12052;53.478;10.182;2023-05-10T08:34:42;16.20;99.90
23744;DHT22;12052;53.478;10.182;2023-05-10T08:37:08;16.10;99.90
23744;DHT22;12052;53.478;10.182;2023-05-10T08:39:35;16.20;99.90
23744;DHT22;12052;53.478;10.182;2023-05-10T08:42:03;16.40;99.90
23744;DHT22;12052;53.478;10.182;2023-05-10T08:44:31;16.40;99.90
23744;DHT22;12052;53.478;10.182;2023-05-10T08:46:59;16.40;99.90
23744;DHT22;12052;53.478;10.182;2023-05-10T08:49:29;16.60;99.90
23744;DHT22;12052;53.478;10.182;2023-05-10T08:51:57;16.70;99.90
23744;DHT22;12052;53.478;10.182;2023-05-10T08:54:25;16.60;99.90
23744;DHT22;12052;53.478;10.182;2023-05-10T08:56:50;16.70;99.90
23744;DHT22;12052;53.478;10.182;2023-05-10T08:59:17;16.80;99.90
23744;DHT22;12052;53.478;10.182;2023-05-10T09:01:44;16.60;99.90
23744;DHT22;12052;53.478;10.182;2023-05-10T09:04:11;16.80;99.90
23744;DHT22;12052;53.478;10.182;2023-05-10T09:06:37;16.60;99.90
23744;DHT22;12052;53.478;10.182;2023-05-10T09:09:03;16.60;99.90
23744;DHT22;12052;53.478;10.182;2023-05-10T09:11:29;16.50;99.90
23744;DHT22;12052;53.478;10.182;2023-05-10T09:13:55;16.20;99.90
23744;DHT22;12052;53.478;10.182;2023-05-10T09:16:22;16.30;99.90
23744;DHT22;12052;53.478;10.182;2023-05-10T09:18:48;16.20;99.90
23744;DHT22;12052;53.478;10.182;2023-05-10T09:21:14;16.30;99.90
23744;DHT22;12052;53.478;10.182;2023-05-10T09:23:45;16.30;99.90
23744;DHT22;12052;53.478;10.182;2023-05-10T09:26:11;16.20;99.90
23744;DHT22;12052;53.478;10.182;2023-05-10T09:28:57;16.10;99.90
23744;DHT22;12052;53.478;10.182;2023-05-10T09:31:23;16.10;99.90
23744;DHT22;12052;53.478;10.182;2023-05-10T09:33:51;16.00;99.90
23744;DHT22;12052;53.478;10.182;2023-05-10T09:36:17;15.90;99.90
23744;DHT22;12052;53.478;10.182;2023-05-10T09:38:50;15.90;99.90
23744;DHT22;12052;53.478;10.182;2023-05-10T09:41:23;15.90;99.90
23744;DHT22;12052;53.478;10.182;2023-05-10T09:43:49;15.80;99.90
23744;DHT22;12052;53.478;10.182;2023-05-10T09:46:15;15.70;99.90
23744;DHT22;12052;53.478;10.182;2023-05-10T09:48:46;15.70;99.90
23744;DHT22;12052;53.478;10.182;2023-05-10T09:51:22;15.70;99.90
23744;DHT22;12052;53.478;10.182;2023-05-10T09:53:50;15.70;99.90
23744;DHT22;12052;53.478;10.182;2023-05-10T09:56:34;15.70;99.90
23744;DHT22;12052;53.478;10.182;2023-05-10T09:59:04;15.70;99.90
23744;DHT22;12052;53.478;10.182;2023-05-10T10:01:30;15.70;99.90
23744;DHT22;12052;53.478;10.182;2023-05-10T10:03:56;15.50;99.90
23744;DHT22;12052;53.478;10.182;2023-05-10T10:06:23;15.50;99.90
23744;DHT22;12052;53.478;10.182;2023-05-10T10:08:50;15.30;99.90
23744;DHT22;12052;53.478;10.182;2023-05-10T10:11:16;15.20;99.90
23744;DHT22;12052;53.478;10.182;2023-05-10T10:13:42;15.10;99.90
23744;DHT22;12052;53.478;10.182;2023-05-10T10:16:08;15.10;99.90
23744;DHT22;12052;53.478;10.182;2023-05-10T10:18:36;14.90;99.90
23744;DHT22;12052;53.478;10.182;2023-05-10T10:21:08;14.70;99.90
23744;DHT22;12052;53.478;10.182;2023-05-10T10:23:36;14.60;99.90
23744;DHT22;12052;53.478;10.182;2023-05-10T10:26:03;14.40;99.90
23744;DHT22;12052;53.478;10.182;2023-05-10T10:28:38;14.30;99.90
23744;DHT22;12052;53.478;10.182;2023-05-10T10:31:26;14.30;99.90
23744;DHT22;12052;53.478;10.182;2023-05-10T10:34:26;14.20;99.90
23744;DHT22;12052;53.478;10.182;2023-05-10T10:36:56;14.10;99.90
23744;DHT22;12052;53.478;10.182;2023-05-10T10:39:23;14.00;99.90
23744;DHT22;12052;53.478;10.182;2023-05-10T10:41:52;14.00;99.90
23744;DHT22;12052;53.478;10.182;2023-05-10T10:47:11;13.90;99.90
23744;DHT22;12052;53.478;10.182;2023-05-10T10:52:33;13.70;99.90
23744;DHT22;12052;53.478;10.182;2023-05-10T10:55:17;13.80;99.90
23744;DHT22;12052;53.478;10.182;2023-05-10T11:00:40;13.90;99.90
23744;DHT22;12052;53.478;10.182;2023-05-10T11:03:10;13.80;99.90
23744;DHT22;12052;53.478;10.182;2023-05-10T11:05:46;14.00;99.90
23744;DHT22;12052;53.478;10.182;2023-05-10T11:08:28;14.00;99.90
23744;DHT22;12052;53.478;10.182;2023-05-10T11:15:58;13.70;99.90
23744;DHT22;12052;53.478;10.182;2023-05-10T11:18:25;13.80;99.90
23744;DHT22;12052;53.478;10.182;2023-05-10T11:20:52;13.80;99.90
23744;DHT22;12052;53.478;10.182;2023-05-10T11:23:20;13.80;99.90
23744;DHT22;12052;53.478;10.182;2023-05-10T11:25:47;13.80;99.90
23744;DHT22;12052;53.478;10.182;2023-05-10T11:28:14;13.90;99.90
23744;DHT22;12052;53.478;10.182;2023-05-10T11:30:41;14.00;99.90
23744;DHT22;12052;53.478;10.182;2023-05-10T11:33:09;14.10;99.90
23744;DHT22;12052;53.478;10.182;2023-05-10T11:35:38;14.10;99.90
23744;DHT22;12052;53.478;10.182;2023-05-10T11:38:13;14.20;99.90
23744;DHT22;12052;53.478;10.182;2023-05-10T11:40:40;14.10;99.90
23744;DHT22;12052;53.478;10.182;2023-05-10T11:43:08;14.00;99.90
23744;DHT22;12052;53.478;10.182;2023-05-10T11:45:34;14.10;99.90
23744;DHT22;12052;53.478;10.182;2023-05-10T11:48:00;14.20;99.90
23744;DHT22;12052;53.478;10.182;2023-05-10T11:50:26;14.30;99.90
23744;DHT22;12052;53.478;10.182;2023-05-10T11:52:56;14.30;99.90
23744;DHT22;12052;53.478;10.182;2023-05-10T11:55:22;14.50;99.90
23744;DHT22;12052;53.478;10.182;2023-05-10T11:57:52;14.60;99.90
23744;DHT22;12052;53.478;10.182;2023-05-10T12:00:17;14.60;99.90
23744;DHT22;12052;53.478;10.182;2023-05-10T12:02:43;14.60;99.90
23744;DHT22;12052;53.478;10.182;2023-05-10T12:05:10;14.70;99.90
23744;DHT22;12052;53.478;10.182;2023-05-10T12:07:35;14.70;99.90
23744;DHT22;12052;53.478;10.182;2023-05-10T12:10:08;14.70;99.90
23744;DHT22;12052;53.478;10.182;2023-05-10T12:12:38;14.70;99.90
23744;DHT22;12052;53.478;10.182;2023-05-10T12:15:05;14.70;99.90
23744;DHT22;12052;53.478;10.182;2023-05-10T12:17:31;14.50;99.90
23744;DHT22;12052;53.478;10.182;2023-05-10T12:20:19;14.60;99.90
23744;DHT22;12052;53.478;10.182;2023-05-10T12:22:54;14.50;99.90
23744;DHT22;12052;53.478;10.182;2023-05-10T12:25:22;14.70;99.90
23744;DHT22;12052;53.478;10.182;2023-05-10T12:27:52;14.70;99.90
23744;DHT22;12052;53.478;10.182;2023-05-10T12:30:25;14.80;99.90
23744;DHT22;12052;53.478;10.182;2023-05-10T12:32:51;14.90;99.90
23744;DHT22;12052;53.478;10.182;2023-05-10T12:35:17;14.70;99.90
23744;DHT22;12052;53.478;10.182;2023-05-10T12:37:47;14.80;99.90
23744;DHT22;12052;53.478;10.182;2023-05-10T12:40:13;15.00;99.90
23744;DHT22;12052;53.478;10.182;2023-05-10T12:42:39;15.30;99.90
23744;DHT22;12052;53.478;10.182;2023-05-10T12:45:05;15.40;99.90
23744;DHT22;12052;53.478;10.182;2023-05-10T12:47:32;15.40;99.90
23744;DHT22;12052;53.478;10.182;2023-05-10T12:49:58;15.00;99.90
23744;DHT22;12052;53.478;10.182;2023-05-10T12:52:24;14.80;99.90
23744;DHT22;12052;53.478;10.182;2023-05-10T12:54:50;15.10;99.90
23744;DHT22;12052;53.478;10.182;2023-05-10T12:57:16;15.20;99.90
23744;DHT22;12052;53.478;10.182;2023-05-10T12:59:42;15.20;99.90
23744;DHT22;12052;53.478;10.182;2023-05-10T13:02:08;15.20;99.90
23744;DHT22;12052;53.478;10.182;2023-05-10T13:04:34;15.40;99.90
23744;DHT22;12052;53.478;10.182;2023-05-10T13:06:59;15.20;99.90
23744;DHT22;12052;53.478;10.182;2023-05-10T13:09:26;15.20;99.90
23744;DHT22;12052;53.478;10.182;2023-05-10T13:11:53;15.10;99.90
23744;DHT22;12052;53.478;10.182;2023-05-10T13:14:19;15.00;99.90
23744;DHT22;12052;53.478;10.182;2023-05-10T13:16:46;15.00;99.90
23744;DHT22;12052;53.478;10.182;2023-05-10T13:19:15;15.00;99.90
23744;DHT22;12052;53.478;10.182;2023-05-10T13:21:41;15.10;99.90
23744;DHT22;12052;53.478;10.182;2023-05-10T13:24:07;15.20;99.90
23744;DHT22;12052;53.478;10.182;2023-05-10T13:26:33;15.40;99.90
23744;DHT22;12052;53.478;10.182;2023-05-10T13:28:58;15.40;99.90
23744;DHT22;12052;53.478;10.182;2023-05-10T13:31:24;15.50;99.90
23744;DHT22;12052;53.478;10.182;2023-05-10T13:33:50;15.70;99.90
23744;DHT22;12052;53.478;10.182;2023-05-10T13:36:16;15.60;99.90
23744;DHT22;12052;53.478;10.182;2023-05-10T13:38:41;15.70;99.90
23744;DHT22;12052;53.478;10.182;2023-05-10T13:41:07;15.80;99.90
23744;DHT22;12052;53.478;10.182;2023-05-10T13:43:32;15.90;99.90
23744;DHT22;12052;53.478;10.182;2023-05-10T13:45:58;15.90;99.90
23744;DHT22;12052;53.478;10.182;2023-05-10T13:48:23;16.00;99.90
23744;DHT22;12052;53.478;10.182;2023-05-10T13:50:49;16.00;99.90
23744;DHT22;12052;53.478;10.182;2023-05-10T13:53:15;15.90;99.90
23744;DHT22;12052;53.478;10.182;2023-05-10T13:55:41;16.00;99.90
23744;DHT22;12052;53.478;10.182;2023-05-10T13:58:07;16.10;99.90
23744;DHT22;12052;53.478;10.182;2023-05-10T14:00:32;16.10;99.90
23744;DHT22;12052;53.478;10.182;2023-05-10T14:02:58;16.10;99.90
23744;DHT22;12052;53.478;10.182;2023-05-10T14:05:23;16.00;99.90
23744;DHT22;12052;53.478;10.182;2023-05-10T14:07:50;15.90;99.90
23744;DHT22;12052;53.478;10.182;2023-05-10T14:10:16;15.90;99.90
23744;DHT22;12052;53.478;10.182;2023-05-10T14:12:41;16.00;99.90
23744;DHT22;12052;53.478;10.182;2023-05-10T14:15:07;16.10;99.90
23744;DHT22;12052;53.478;10.182;2023-05-10T14:17:35;16.00;99.90
23744;DHT22;12052;53.478;10.182;2023-05-10T14:20:01;16.10;99.90
23744;DHT22;12052;53.478;10.182;2023-05-10T14:22:27;16.30;99.90
23744;DHT22;12052;53.478;10.182;2023-05-10T14:24:52;16.40;99.90
23744;DHT22;12052;53.478;10.182;2023-05-10T14:27:18;16.50;99.90
23744;DHT22;12052;53.478;10.182;2023-05-10T14:29:43;16.40;99.90
23744;DHT22;12052;53.478;10.182;2023-05-10T14:32:09;16.40;99.90
23744;DHT22;12052;53.478;10.182;2023-05-10T14:34:35;16.40;99.90
23744;DHT22;12052;53.478;10.182;2023-05-10T14:37:01;16.10;99.90
23744;DHT22;12052;53.478;10.182;2023-05-10T14:39:26;16.10;99.90
23744;DHT22;12052;53.478;10.182;2023-05-10T14:41:55;16.20;99.90
23744;DHT22;12052;53.478;10.182;2023-05-10T14:44:20;16.30;99.90
23744;DHT22;12052;53.478;10.182;2023-05-10T14:46:46;16.20;99.90
23744;DHT22;12052;53.478;10.182;2023-05-10T14:49:11;16.30;99.90
23744;DHT22;12052;53.478;10.182;2023-05-10T14:51:37;16.30;99.90
23744;DHT22;12052;53.478;10.182;2023-05-10T14:54:03;16.30;99.90
23744;DHT22;12052;53.478;10.182;2023-05-10T14:56:28;16.40;99.90
23744;DHT22;12052;53.478;10.182;2023-05-10T14:58:54;16.50;99.90
23744;DHT22;12052;53.478;10.182;2023-05-10T15:01:19;16.40;99.90
23744;DHT22;12052;53.478;10.182;2023-05-10T15:03:45;16.40;99.90
23744;DHT22;12052;53.478;10.182;2023-05-10T15:06:11;16.40;99.90
23744;DHT22;12052;53.478;10.182;2023-05-10T15:08:37;16.30;99.90
23744;DHT22;12052;53.478;10.182;2023-05-10T15:11:02;16.40;99.90
23744;DHT22;12052;53.478;10.182;2023-05-10T15:13:28;16.60;99.90
23744;DHT22;12052;53.478;10.182;2023-05-10T15:15:53;16.80;99.90
23744;DHT22;12052;53.478;10.182;2023-05-10T15:18:19;16.90;99.90
23744;DHT22;12052;53.478;10.182;2023-05-10T15:20:45;17.00;99.90
23744;DHT22;12052;53.478;10.182;2023-05-10T15:23:11;17.00;99.90
23744;DHT22;12052;53.478;10.182;2023-05-10T15:25:36;17.10;99.90
23744;DHT22;12052;53.478;10.182;2023-05-10T15:28:03;16.90;99.90
23744;DHT22;12052;53.478;10.182;2023-05-10T15:30:29;17.00;99.90
23744;DHT22;12052;53.478;10.182;2023-05-10T15:32:55;17.00;99.90
23744;DHT22;12052;53.478;10.182;2023-05-10T15:35:21;17.00;99.90
23744;DHT22;12052;53.478;10.182;2023-05-10T15:37:48;16.90;99.90
23744;DHT22;12052;53.478;10.182;2023-05-10T15:40:15;16.90;99.90
23744;DHT22;12052;53.478;10.182;2023-05-10T15:42:40;17.00;99.90
23744;DHT22;12052;53.478;10.182;2023-05-10T15:45:06;17.10;99.90
23744;DHT22;12052;53.478;10.182;2023-05-10T15:47:32;17.00;99.90
23744;DHT22;12052;53.478;10.182;2023-05-10T15:49:58;17.00;99.90